createdAt,value
2019-01-09T00:01:52.669Z,88.81
2019-01-09T00:04:18.754Z,88.10
2019-01-09T00:06:44.789Z,87.55
2019-01-09T00:09:10.968Z,88.07
2019-01-09T00:11:37.104Z,87.72
2019-01-09T00:14:03.368Z,87.99
2019-01-09T00:16:29.489Z,87.71
2019-01-09T00:18:55.526Z,87.09
2019-01-09T00:21:21.542Z,87.24
2019-01-09T00:23:47.646Z,87.10
2019-01-09T00:26:13.686Z,87.43
2019-01-09T00:28:39.704Z,86.82
2019-01-09T00:31:05.882Z,86.83
2019-01-09T00:33:31.919Z,87.36
2019-01-09T00:35:57.956Z,85.95
2019-01-09T00:38:23.986Z,85.87
2019-01-09T00:40:50.005Z,85.78
2019-01-09T00:43:16.027Z,85.30
2019-01-09T00:45:42.100Z,85.39
2019-01-09T00:48:08.123Z,84.58
2019-01-09T00:50:34.174Z,84.46
2019-01-09T00:53:00.195Z,85.14
2019-01-09T00:55:26.499Z,84.85
2019-01-09T00:57:52.652Z,85.25
2019-01-09T01:00:20.146Z,85.01
2019-01-09T01:03:14.328Z,84.06
2019-01-09T01:05:49.914Z,84.74
2019-01-09T01:08:42.695Z,84.79
2019-01-09T01:11:27.173Z,84.26
2019-01-09T01:14:02.792Z,83.82
2019-01-09T01:16:41.542Z,83.60
2019-01-09T01:19:46.254Z,84.03
2019-01-09T01:22:33.535Z,84.52
2019-01-09T01:25:27.280Z,84.08
2019-01-09T01:28:05.898Z,83.41
2019-01-09T01:30:38.874Z,83.88
2019-01-09T01:33:28.234Z,83.71
2019-01-09T01:36:17.558Z,83.57
2019-01-09T01:38:56.278Z,83.27
2019-01-09T01:41:35.153Z,83.32
2019-01-09T01:44:07.750Z,84.18
2019-01-09T01:47:00.250Z,84.26
2019-01-09T01:49:49.023Z,84.17
2019-01-09T01:52:42.943Z,84.02
2019-01-09T01:55:18.745Z,83.50
2019-01-09T01:57:51.398Z,83.79
2019-01-09T02:00:38.714Z,82.98
2019-01-09T02:03:08.574Z,83.28
2019-01-09T02:05:41.445Z,83.30
2019-01-09T02:08:33.338Z,82.99
2019-01-09T02:11:12.123Z,82.88
2019-01-09T02:13:52.646Z,82.66
2019-01-09T02:16:55.075Z,82.12
2019-01-09T02:19:27.885Z,82.45
2019-01-09T02:22:06.171Z,81.33
2019-01-09T02:24:42.139Z,81.76
2019-01-09T02:27:14.805Z,81.53
2019-01-09T02:29:50.502Z,81.31
2019-01-09T02:32:29.735Z,81.70
2019-01-09T02:34:55.839Z,81.73
2019-01-09T02:37:21.967Z,81.67
2019-01-09T02:39:48.015Z,81.22
2019-01-09T02:42:14.029Z,81.44
2019-01-09T02:44:40.149Z,82.31
2019-01-09T02:47:06.231Z,81.96
2019-01-09T02:49:32.274Z,82.09
2019-01-09T02:51:58.404Z,82.45
2019-01-09T02:54:24.433Z,81.54
2019-01-09T02:56:50.631Z,82.45
2019-01-09T02:59:16.642Z,82.60
2019-01-09T03:01:42.834Z,82.34
2019-01-09T03:04:08.875Z,81.90
2019-01-09T03:06:35.031Z,82.11
2019-01-09T03:09:01.034Z,81.59
2019-01-09T03:11:27.082Z,81.12
2019-01-09T03:13:53.207Z,80.70
2019-01-09T03:16:19.242Z,80.29
2019-01-09T03:18:45.279Z,81.28
2019-01-09T03:21:11.315Z,81.12
2019-01-09T03:23:37.699Z,81.48
2019-01-09T03:26:03.782Z,81.23
2019-01-09T03:28:29.821Z,80.41
2019-01-09T03:30:55.848Z,80.29
2019-01-09T03:33:21.849Z,80.44
2019-01-09T03:35:47.865Z,80.86
2019-01-09T03:38:13.862Z,80.18
2019-01-09T03:40:40.100Z,80.87
2019-01-09T03:43:06.216Z,81.06
2019-01-09T03:45:32.360Z,80.42
2019-01-09T03:47:58.361Z,80.75
2019-01-09T03:50:24.380Z,80.22
2019-01-09T03:52:50.404Z,79.83
2019-01-09T03:55:16.400Z,79.92
2019-01-09T03:57:42.414Z,80.32
2019-01-09T04:00:08.520Z,80.39
2019-01-09T04:02:34.541Z,80.25
2019-01-09T04:05:00.669Z,80.86
2019-01-09T04:07:26.743Z,80.73
2019-01-09T04:09:52.766Z,81.57
2019-01-09T04:12:18.799Z,81.83
2019-01-09T04:14:44.802Z,83.13
2019-01-09T04:17:10.842Z,82.95
2019-01-09T04:19:36.861Z,84.38
2019-01-09T04:22:02.986Z,84.61
2019-01-09T04:24:29.023Z,84.75
2019-01-09T04:26:55.069Z,84.79
2019-01-09T04:29:21.086Z,85.14
2019-01-09T04:31:47.159Z,85.11
2019-01-09T04:34:13.272Z,85.20
2019-01-09T04:36:39.314Z,85.14
2019-01-09T04:39:05.510Z,84.45
2019-01-09T04:41:31.559Z,84.03
2019-01-09T04:43:57.579Z,83.82
2019-01-09T04:46:23.616Z,88.49
2019-01-09T04:48:49.721Z,82.25
2019-01-09T04:51:15.748Z,83.24
2019-01-09T04:53:41.840Z,83.69
2019-01-09T04:56:07.866Z,83.47
2019-01-09T04:58:33.855Z,84.01
2019-01-09T05:01:00.060Z,84.53
2019-01-09T05:03:26.162Z,84.63
2019-01-09T05:05:52.420Z,84.31
2019-01-09T05:08:18.466Z,84.63
2019-01-09T05:10:44.563Z,84.86
2019-01-09T05:13:10.583Z,85.71
2019-01-09T05:15:36.590Z,86.01
2019-01-09T05:18:02.715Z,85.46
2019-01-09T05:20:28.758Z,85.30
2019-01-09T05:22:54.778Z,85.72
2019-01-09T05:25:20.823Z,85.26
2019-01-09T05:27:46.963Z,86.08
2019-01-09T05:30:13.026Z,85.51
2019-01-09T05:32:39.070Z,85.28
2019-01-09T05:35:05.071Z,85.56
2019-01-09T05:37:31.159Z,86.03
2019-01-09T05:39:57.185Z,86.02
2019-01-09T05:42:23.312Z,85.72
2019-01-09T05:44:49.418Z,85.69
2019-01-09T05:47:15.470Z,85.98
2019-01-09T05:49:42.376Z,85.89
2019-01-09T05:52:08.427Z,85.92
2019-01-09T05:54:34.544Z,86.22
2019-01-09T05:57:00.623Z,86.26
2019-01-09T05:59:26.635Z,85.96
2019-01-09T06:01:52.650Z,85.72
2019-01-09T06:04:18.928Z,85.79
2019-01-09T06:06:44.985Z,86.41
2019-01-09T06:09:11.005Z,86.51
2019-01-09T06:11:37.247Z,86.73
2019-01-09T06:14:03.256Z,86.38
2019-01-09T06:16:29.354Z,86.81
2019-01-09T06:18:55.396Z,87.01
2019-01-09T06:21:21.445Z,87.27
2019-01-09T06:23:47.503Z,87.02
2019-01-09T06:26:13.515Z,86.95
2019-01-09T06:28:39.546Z,86.91
2019-01-09T06:31:05.589Z,88.12
2019-01-09T06:33:31.654Z,88.04
2019-01-09T06:35:57.723Z,88.05
2019-01-09T06:38:23.807Z,88.08
2019-01-09T06:40:49.867Z,87.62
2019-01-09T06:43:15.887Z,87.92
2019-01-09T06:45:41.984Z,88.44
2019-01-09T06:48:08.005Z,87.34
2019-01-09T06:50:34.083Z,88.06
2019-01-09T06:53:00.228Z,88.30
2019-01-09T06:55:26.305Z,89.08
2019-01-09T06:57:52.422Z,89.37
2019-01-09T07:00:18.735Z,89.91
2019-01-09T07:02:44.764Z,90.29
2019-01-09T07:05:10.786Z,90.79
2019-01-09T07:07:36.948Z,89.99
2019-01-09T07:10:05.359Z,90.50
2019-01-09T07:12:31.414Z,91.26
2019-01-09T07:14:57.446Z,90.68
2019-01-09T07:17:23.519Z,91.01
2019-01-09T07:19:49.588Z,91.17
2019-01-09T07:22:15.736Z,91.18
2019-01-09T07:24:41.738Z,91.24
2019-01-09T07:27:07.863Z,90.54
2019-01-09T07:29:33.921Z,90.29
2019-01-09T07:31:59.960Z,90.29
2019-01-09T07:34:26.084Z,90.78
2019-01-09T07:36:52.156Z,90.87
2019-01-09T07:39:18.203Z,90.38
2019-01-09T07:41:44.212Z,90.71
2019-01-09T07:44:10.315Z,91.16
2019-01-09T07:46:36.363Z,91.53
2019-01-09T07:49:02.443Z,91.10
2019-01-09T07:51:28.621Z,90.89
2019-01-09T07:53:56.331Z,91.49
2019-01-09T07:56:22.538Z,91.34
2019-01-09T07:58:49.047Z,90.94
2019-01-09T08:01:15.169Z,91.03
2019-01-09T08:03:41.329Z,91.55
2019-01-09T08:06:07.352Z,91.42
2019-01-09T08:08:33.387Z,91.35
2019-01-09T08:10:59.484Z,91.67
2019-01-09T08:13:25.602Z,91.52
2019-01-09T08:15:51.656Z,91.32
2019-01-09T08:18:17.702Z,91.25
2019-01-09T08:20:43.743Z,91.72
2019-01-09T08:23:10.371Z,91.40
2019-01-09T08:25:36.435Z,91.45
2019-01-09T08:28:02.564Z,92.21
2019-01-09T08:30:28.575Z,91.95
2019-01-09T08:32:54.600Z,91.95
2019-01-09T08:35:20.658Z,92.29
2019-01-09T08:37:46.687Z,92.15
2019-01-09T08:40:12.696Z,92.29
2019-01-09T08:42:38.732Z,92.36
2019-01-09T08:45:05.870Z,91.94
2019-01-09T08:47:31.906Z,92.47
2019-01-09T08:49:57.935Z,92.18
2019-01-09T08:52:23.987Z,91.95
2019-01-09T08:54:50.043Z,92.43
2019-01-09T08:57:16.172Z,93.03
2019-01-09T08:59:42.208Z,92.57
2019-01-09T09:02:08.249Z,92.76
2019-01-09T09:04:34.358Z,92.45
2019-01-09T09:07:00.387Z,92.60
2019-01-09T09:09:26.730Z,92.21
2019-01-09T09:11:52.855Z,92.03
2019-01-09T09:14:18.895Z,92.16
2019-01-09T09:16:44.899Z,92.18
2019-01-09T09:19:11.057Z,92.55
2019-01-09T09:21:37.055Z,92.33
2019-01-09T09:24:03.588Z,92.37
2019-01-09T09:26:29.612Z,92.30
2019-01-09T09:28:55.727Z,92.45
2019-01-09T09:31:21.770Z,92.08
2019-01-09T09:33:47.914Z,92.01
2019-01-09T09:36:13.943Z,92.47
2019-01-09T09:38:40.108Z,92.51
2019-01-09T09:41:06.209Z,92.73
2019-01-09T09:43:32.363Z,93.02
2019-01-09T09:45:58.507Z,92.89
2019-01-09T09:48:24.526Z,92.98
2019-01-09T09:50:50.579Z,92.80
2019-01-09T09:53:16.627Z,92.81
2019-01-09T09:55:42.658Z,93.08
2019-01-09T09:58:08.764Z,93.29
2019-01-09T10:00:34.876Z,93.52
2019-01-09T10:03:01.005Z,93.33
2019-01-09T10:05:27.087Z,93.62
2019-01-09T10:07:53.212Z,93.46
2019-01-09T10:10:19.247Z,93.49
2019-01-09T10:12:45.319Z,92.90
2019-01-09T10:15:13.229Z,92.65
2019-01-09T10:17:39.334Z,92.48
2019-01-09T10:20:09.095Z,92.01
2019-01-09T10:22:35.367Z,92.53
2019-01-09T10:25:01.407Z,90.41
2019-01-09T10:27:27.402Z,89.83
2019-01-09T10:29:53.823Z,89.46
2019-01-09T10:32:19.939Z,88.69
2019-01-09T10:34:45.954Z,89.04
2019-01-09T10:37:12.019Z,88.72
2019-01-09T10:39:38.034Z,88.20
2019-01-09T10:42:04.188Z,88.84
2019-01-09T10:44:30.297Z,88.02
2019-01-09T10:46:56.350Z,87.50
2019-01-09T10:49:22.374Z,87.07
2019-01-09T10:51:48.449Z,87.52
2019-01-09T10:54:14.488Z,87.78
2019-01-09T10:56:40.679Z,87.91
2019-01-09T10:59:06.802Z,88.37
2019-01-09T11:01:33.150Z,88.46
2019-01-09T11:03:59.191Z,88.30
2019-01-09T11:06:25.383Z,88.52
2019-01-09T11:08:51.414Z,89.23
2019-01-09T11:11:17.543Z,89.78
2019-01-09T11:13:43.578Z,89.65
2019-01-09T11:16:09.586Z,90.01
2019-01-09T11:18:35.631Z,90.68
2019-01-09T11:21:03.572Z,90.52
2019-01-09T11:23:29.946Z,90.96
2019-01-09T11:25:56.070Z,90.58
2019-01-09T11:28:22.136Z,90.88
2019-01-09T11:30:48.282Z,90.85
2019-01-09T11:33:14.326Z,90.91
2019-01-09T11:35:40.517Z,90.32
2019-01-09T11:38:06.582Z,90.13
2019-01-09T11:40:32.663Z,90.54
2019-01-09T11:42:59.479Z,90.35
2019-01-09T11:45:25.614Z,90.41
2019-01-09T11:47:51.643Z,90.32
2019-01-09T11:50:17.678Z,90.50
2019-01-09T11:52:43.839Z,90.64
2019-01-09T11:55:11.591Z,91.22
2019-01-09T11:57:37.689Z,90.83
2019-01-09T12:00:16.464Z,90.99
2019-01-09T12:02:42.589Z,90.96
2019-01-09T12:05:08.826Z,90.88
2019-01-09T12:07:34.826Z,90.77
2019-01-09T12:10:00.997Z,90.98
2019-01-09T12:12:27.020Z,91.36
2019-01-09T12:14:53.053Z,91.86
2019-01-09T12:17:19.113Z,91.99
2019-01-09T12:19:45.133Z,92.13
2019-01-09T12:22:11.167Z,92.26
2019-01-09T12:24:37.201Z,91.99
2019-01-09T12:27:03.335Z,92.38
2019-01-09T12:29:29.476Z,92.71
2019-01-09T12:31:55.651Z,93.00
2019-01-09T12:34:21.769Z,92.79
2019-01-09T12:36:47.848Z,92.73
2019-01-09T12:39:14.075Z,92.51
2019-01-09T12:41:40.099Z,92.68
2019-01-09T12:44:06.159Z,93.23
2019-01-09T12:46:32.174Z,92.37
2019-01-09T12:48:58.196Z,92.42
2019-01-09T12:51:24.353Z,92.64
2019-01-09T12:53:50.350Z,92.50
2019-01-09T12:56:16.371Z,93.04
2019-01-09T12:58:42.469Z,93.03
2019-01-09T13:01:08.483Z,92.93
2019-01-09T13:03:34.623Z,93.30
2019-01-09T13:06:00.630Z,93.52
2019-01-09T13:08:26.758Z,93.03
2019-01-09T13:10:52.765Z,92.66
2019-01-09T13:13:18.876Z,92.48
2019-01-09T13:15:44.887Z,92.81
2019-01-09T13:18:10.940Z,92.86
2019-01-09T13:20:36.955Z,93.48
2019-01-09T13:23:03.100Z,93.79
2019-01-09T13:25:29.176Z,93.60
2019-01-09T13:27:55.203Z,93.85
2019-01-09T13:30:21.383Z,93.86
2019-01-09T13:32:47.731Z,94.08
2019-01-09T13:35:13.805Z,93.61
2019-01-09T13:37:39.933Z,93.79
2019-01-09T13:40:09.848Z,93.86
2019-01-09T13:42:35.891Z,93.69
2019-01-09T13:45:04.939Z,93.51
2019-01-09T13:47:31.063Z,93.67
2019-01-09T13:49:58.152Z,93.90
2019-01-09T13:52:24.356Z,94.09
2019-01-09T13:54:50.446Z,93.80
2019-01-09T13:57:16.894Z,93.58
2019-01-09T13:59:42.987Z,93.79
2019-01-09T14:02:09.055Z,93.21
2019-01-09T14:04:35.104Z,92.32
2019-01-09T14:07:01.951Z,92.68
2019-01-09T14:09:27.997Z,92.89
2019-01-09T14:11:54.069Z,92.58
2019-01-09T14:14:20.135Z,92.22
2019-01-09T14:16:48.034Z,92.45
2019-01-09T14:19:14.055Z,92.54
2019-01-09T14:21:40.140Z,92.68
2019-01-09T14:24:06.147Z,92.29
2019-01-09T14:26:32.277Z,93.52
2019-01-09T14:28:58.327Z,91.17
2019-01-09T14:31:24.423Z,91.31
2019-01-09T14:33:50.469Z,91.77
2019-01-09T14:36:16.540Z,91.84
2019-01-09T14:38:42.572Z,90.71
2019-01-09T14:41:08.696Z,90.56
2019-01-09T14:43:34.809Z,88.84
2019-01-09T14:46:00.918Z,88.97
2019-01-09T14:48:26.931Z,89.43
2019-01-09T14:50:52.944Z,88.14
2019-01-09T14:53:18.978Z,88.17
2019-01-09T14:55:45.016Z,88.27
2019-01-09T14:58:11.043Z,88.68
2019-01-09T15:00:37.111Z,89.25
2019-01-09T15:03:03.119Z,90.25
2019-01-09T15:05:29.236Z,90.55
2019-01-09T15:07:55.355Z,90.57
2019-01-09T15:10:23.718Z,90.43
2019-01-09T15:12:50.198Z,90.42
2019-01-09T15:15:17.670Z,90.93
2019-01-09T15:17:43.807Z,90.81
2019-01-09T15:20:14.394Z,90.78
2019-01-09T15:22:40.789Z,91.42
2019-01-09T15:25:09.227Z,91.93
2019-01-09T15:27:36.063Z,92.15
2019-01-09T15:30:08.353Z,92.80
2019-01-09T15:32:34.490Z,92.43
2019-01-09T15:35:01.110Z,92.64
2019-01-09T15:37:27.494Z,94.07
2019-01-09T15:39:54.194Z,93.09
2019-01-09T15:42:20.594Z,91.77
2019-01-09T15:44:47.330Z,91.29
2019-01-09T15:47:13.909Z,91.33
2019-01-09T15:49:40.046Z,91.45
2019-01-09T15:52:06.129Z,91.58
2019-01-09T15:54:32.230Z,90.32
2019-01-09T15:56:58.491Z,90.04
2019-01-09T15:59:24.562Z,89.94
2019-01-09T16:01:50.611Z,91.43
2019-01-09T16:04:16.621Z,91.95
2019-01-09T16:06:42.676Z,91.97
2019-01-09T16:09:08.920Z,92.39
2019-01-09T16:11:35.711Z,92.64
2019-01-09T16:14:01.985Z,92.19
2019-01-09T16:16:28.039Z,92.23
2019-01-09T16:18:56.431Z,92.35
2019-01-09T16:21:24.544Z,92.70
2019-01-09T16:23:51.446Z,92.49
2019-01-09T16:26:17.508Z,92.17
2019-01-09T16:28:43.907Z,93.76
2019-01-09T16:31:12.830Z,93.10
2019-01-09T16:33:38.890Z,93.31
2019-01-09T16:36:05.229Z,93.49
2019-01-09T16:38:32.756Z,92.73
2019-01-09T16:40:58.852Z,93.39
2019-01-09T16:43:28.954Z,91.61
2019-01-09T16:45:56.099Z,90.07
2019-01-09T16:48:22.120Z,90.62
2019-01-09T16:50:48.136Z,88.77
2019-01-09T16:53:14.539Z,87.86
2019-01-09T16:55:40.851Z,88.68
2019-01-09T16:58:07.216Z,88.01
2019-01-09T17:00:36.414Z,87.71
2019-01-09T17:03:02.746Z,88.11
2019-01-09T17:05:28.929Z,88.72
2019-01-09T17:07:55.442Z,88.74
2019-01-09T17:10:22.175Z,88.91
2019-01-09T17:12:48.345Z,88.30
2019-01-09T17:15:19.268Z,88.58
2019-01-09T17:17:46.528Z,87.98
2019-01-09T17:20:16.833Z,88.31
2019-01-09T17:22:43.074Z,88.45
2019-01-09T17:25:09.766Z,88.50
2019-01-09T17:27:35.993Z,87.93
2019-01-09T17:30:06.058Z,87.68
2019-01-09T17:32:32.162Z,87.51
2019-01-09T17:34:58.301Z,86.86
2019-01-09T17:37:24.348Z,86.30
2019-01-09T17:39:50.407Z,86.04
2019-01-09T17:42:16.562Z,86.82
2019-01-09T17:44:42.722Z,86.61
2019-01-09T17:47:08.795Z,85.98
2019-01-09T17:49:34.945Z,85.88
2019-01-09T17:52:01.155Z,85.23
2019-01-09T17:54:27.167Z,84.89
2019-01-09T17:56:53.327Z,84.63
2019-01-09T17:59:19.330Z,83.86
2019-01-09T18:01:45.411Z,84.52
2019-01-09T18:04:11.542Z,84.11
2019-01-09T18:06:37.603Z,84.14
2019-01-09T18:09:05.610Z,84.65
2019-01-09T18:11:31.670Z,84.83
2019-01-09T18:13:57.697Z,84.39
2019-01-09T18:16:23.795Z,84.11
2019-01-09T18:18:49.841Z,84.16
2019-01-09T18:21:15.888Z,83.29
2019-01-09T18:23:42.051Z,83.21
2019-01-09T18:26:08.196Z,83.24
2019-01-09T18:28:34.356Z,83.47
2019-01-09T18:31:04.303Z,83.11
2019-01-09T18:33:34.229Z,83.18
2019-01-09T18:36:21.560Z,83.18
2019-01-09T18:39:03.962Z,83.04
2019-01-09T18:41:46.020Z,83.72
2019-01-09T18:44:27.354Z,81.79
2019-01-09T18:47:14.700Z,80.93
2019-01-09T18:49:47.417Z,81.38
2019-01-09T18:52:26.410Z,80.68
2019-01-09T18:54:52.442Z,79.18
2019-01-09T18:57:18.610Z,79.98
2019-01-09T18:59:44.715Z,78.90
2019-01-09T19:02:10.979Z,79.68
2019-01-09T19:04:37.102Z,80.86
2019-01-09T19:07:04.865Z,79.28
2019-01-09T19:13:15.586Z,80.74
2019-01-09T19:15:41.799Z,80.61
2019-01-09T19:18:07.954Z,80.93
2019-01-09T19:20:34.375Z,81.07
2019-01-09T19:23:01.101Z,80.75
2019-01-09T19:25:27.231Z,80.31
2019-01-09T19:27:53.420Z,79.79
2019-01-09T19:30:25.171Z,80.34
2019-01-09T19:32:51.499Z,80.69
2019-01-09T19:35:17.604Z,80.54
2019-01-09T19:37:43.786Z,80.24
2019-01-09T19:40:09.924Z,80.44
2019-01-09T19:42:36.300Z,80.89
2019-01-09T19:45:05.885Z,80.36
2019-01-09T19:47:32.025Z,79.83
2019-01-09T19:49:58.049Z,80.16
2019-01-09T19:52:24.432Z,79.75
2019-01-09T19:54:50.604Z,79.06
2019-01-09T19:57:16.688Z,78.90
2019-01-09T19:59:42.719Z,85.61
2019-01-09T20:02:08.884Z,80.11
2019-01-09T20:04:35.269Z,79.90
2019-01-09T20:07:01.475Z,79.71
2019-01-09T20:09:27.601Z,79.07
2019-01-09T20:11:53.877Z,78.68
2019-01-09T20:14:19.989Z,78.39
2019-01-09T20:16:46.140Z,79.24
2019-01-09T20:19:12.274Z,78.83
2019-01-09T20:21:38.503Z,78.93
2019-01-09T20:24:04.644Z,78.96
2019-01-09T20:26:30.711Z,78.58
2019-01-09T20:28:56.772Z,78.58
2019-01-09T20:31:22.782Z,78.93
2019-01-09T20:33:49.007Z,78.51
2019-01-09T20:36:15.219Z,78.61
2019-01-09T20:38:41.453Z,78.92
2019-01-09T20:41:07.697Z,78.04
2019-01-09T20:43:33.831Z,78.54
2019-01-09T20:45:59.983Z,78.80
2019-01-09T20:48:26.127Z,78.50
2019-01-09T20:50:53.485Z,78.66
2019-01-09T20:53:20.120Z,78.12
2019-01-09T20:55:46.259Z,78.89
2019-01-09T20:58:13.205Z,78.48
2019-01-09T21:00:39.527Z,78.54
2019-01-09T21:03:05.821Z,78.57
2019-01-09T21:05:34.767Z,79.70
2019-01-09T21:08:01.648Z,78.49
2019-01-09T21:10:27.724Z,78.38
2019-01-09T21:12:54.291Z,78.56
2019-01-09T21:15:20.823Z,83.34
2019-01-09T21:17:47.632Z,80.79
2019-01-09T21:20:16.117Z,79.80
2019-01-09T21:22:42.299Z,81.28
2019-01-09T21:25:08.851Z,77.17
2019-01-09T21:27:41.971Z,75.86
2019-01-09T21:30:09.835Z,76.98
2019-01-09T21:32:35.906Z,76.49
2019-01-09T21:35:02.850Z,77.20
2019-01-09T21:37:28.877Z,77.13
2019-01-09T21:39:54.887Z,77.55
2019-01-09T21:42:20.967Z,77.77
2019-01-09T21:44:47.114Z,77.26
2019-01-09T21:47:13.256Z,77.40
2019-01-09T21:49:39.297Z,76.17
2019-01-09T21:52:05.470Z,76.08
2019-01-09T21:54:31.816Z,76.24
2019-01-09T21:56:57.903Z,76.26
2019-01-09T21:59:24.174Z,76.03
2019-01-09T22:01:50.515Z,76.27
2019-01-09T22:04:16.549Z,76.97
2019-01-09T22:06:42.826Z,77.06
2019-01-09T22:09:08.915Z,76.75
2019-01-09T22:11:35.105Z,76.07
2019-01-09T22:14:01.367Z,76.16
2019-01-09T22:16:27.774Z,75.75
2019-01-09T22:18:53.924Z,75.89
2019-01-09T22:21:20.064Z,76.23
2019-01-09T22:23:46.387Z,75.89
2019-01-09T22:26:12.657Z,76.64
2019-01-09T22:28:38.794Z,77.37
2019-01-09T22:31:05.051Z,76.07
2019-01-09T22:33:31.196Z,76.95
2019-01-09T22:35:57.394Z,76.77
2019-01-09T22:38:23.452Z,75.91
2019-01-09T22:40:49.504Z,75.65
2019-01-09T22:43:15.678Z,75.76
2019-01-09T22:45:41.721Z,75.65
2019-01-09T22:48:07.775Z,76.55
2019-01-09T22:50:33.914Z,76.33
2019-01-09T22:53:00.020Z,76.53
2019-01-09T22:55:26.168Z,76.60
2019-01-09T22:57:53.216Z,77.45
2019-01-09T23:00:44.427Z,77.07
2019-01-09T23:03:12.274Z,77.55
2019-01-09T23:05:38.509Z,77.58
2019-01-09T23:08:06.591Z,77.07
2019-01-09T23:10:32.716Z,76.39
2019-01-09T23:13:00.675Z,76.32
2019-01-09T23:15:26.859Z,76.76
2019-01-09T23:17:53.231Z,77.48
2019-01-09T23:20:19.345Z,77.59
2019-01-09T23:22:45.527Z,77.13
2019-01-09T23:25:11.941Z,77.17
2019-01-09T23:27:38.020Z,77.95
2019-01-09T23:30:08.776Z,78.27
2019-01-09T23:32:37.064Z,77.97
2019-01-09T23:35:05.583Z,77.54
2019-01-09T23:37:33.506Z,77.87
2019-01-09T23:39:59.568Z,76.89
2019-01-09T23:42:30.322Z,77.32
2019-01-09T23:44:53.955Z,76.92
2019-01-09T23:47:20.001Z,76.77
2019-01-09T23:49:46.168Z,76.86
2019-01-09T23:52:12.353Z,76.91
2019-01-09T23:54:38.523Z,76.55
2019-01-09T23:57:04.555Z,77.13
2019-01-09T23:59:30.594Z,76.73
